Terminal Aerodrome Forecast
Issued by NWS

Home | Current Version | Previous Version | Text Only | Print | Product List | Glossary On
Versions: 1 2 3 4 5 6 7 8 9 10 11 12 13 14 15 16 17 18 19
000
FTUS46 KLOX 242300 RRA
TAFVNY
TAF
KVNY 242340Z 2500/2524 15008KT P6SM SKC
     FM250300 VRB03KT P6SM SKC
     FM251100 VRB03KT P6SM BKN015
     FM251400 10006KT P6SM OVC017
     FM251800 13010KT P6SM OVC020
     FM252000 16012KT P6SM SCT020 BKN100=

USA.gov is the U.S. government's official web portal to all federal, state and local government web resources and services.